Time;durP1;ratioP1;P1;durP2;ratioP2;P2;SDS_P1;SDS_P2;PMS_P1;PMS_P2;Temp;Humidity;BMP_temperature;BMP_pressure;BME280_temperature;BME280_humidity;BME280_pressure;Samples;Min_cycle;Max_cycle;Signal;HPM_P1;HPM_P2
2023/02/26 00:01:33;;;;;;;4.10;1.53;;;0.50;99.90;;;;;;5055648;28;20500;-66
2023/02/26 00:04:02;;;;;;;3.53;1.73;;;0.50;99.90;;;;;;5057078;28;20480;-67
2023/02/26 00:06:32;;;;;;;2.40;1.60;;;0.50;99.90;;;;;;5058860;28;20545;-66
2023/02/26 00:09:03;;;;;;;1.83;1.33;;;0.40;99.90;;;;;;5054918;28;20481;-67
2023/02/26 00:11:31;;;;;;;1.60;1.50;;;0.40;99.90;;;;;;5059613;28;20595;-66
2023/02/26 00:14:00;;;;;;;2.27;1.60;;;0.40;99.90;;;;;;5057599;28;21030;-67
2023/02/26 00:16:30;;;;;;;1.30;1.20;;;0.40;99.90;;;;;;5047476;28;20851;-66
2023/02/26 00:19:00;;;;;;;1.90;1.50;;;0.40;99.90;;;;;;5054549;28;20995;-67
2023/02/26 00:21:29;;;;;;;3.07;1.80;;;0.40;99.90;;;;;;5053457;28;20493;-65
2023/02/26 00:23:59;;;;;;;2.23;1.50;;;0.40;99.90;;;;;;5058346;28;20568;-65
2023/02/26 00:26:30;;;;;;;1.80;1.70;;;0.40;99.90;;;;;;5051147;28;20473;-66
2023/02/26 00:28:59;;;;;;;3.50;1.70;;;0.40;99.90;;;;;;5053703;28;21161;-67
2023/02/26 00:31:28;;;;;;;2.80;1.53;;;0.30;99.90;;;;;;5049807;28;20485;-67
2023/02/26 00:33:57;;;;;;;1.70;1.60;;;0.40;99.90;;;;;;5054873;28;20496;-68
2023/02/26 00:36:38;;;;;;;2.10;1.43;;;0.30;99.90;;;;;;5044650;28;20508;-66
2023/02/26 00:39:16;;;;;;;2.00;1.40;;;0.30;99.90;;;;;;5054801;28;20663;-66
2023/02/26 00:41:45;;;;;;;1.80;1.30;;;0.30;99.90;;;;;;5055471;28;20469;-66
2023/02/26 00:44:14;;;;;;;6.10;1.70;;;0.30;99.90;;;;;;5054900;28;20476;-67
2023/02/26 00:46:49;;;;;;;3.37;1.60;;;0.30;99.90;;;;;;5048367;28;20482;-67
2023/02/26 00:49:27;;;;;;;1.70;1.40;;;0.30;99.90;;;;;;5049526;28;20480;-66
2023/02/26 00:51:58;;;;;;;2.40;1.70;;;0.30;99.90;;;;;;5049501;28;20469;-66
2023/02/26 00:54:27;;;;;;;3.33;1.43;;;0.30;99.90;;;;;;5047696;28;20860;-66
2023/02/26 00:56:58;;;;;;;2.03;1.70;;;0.30;99.90;;;;;;5037699;28;20482;-66
2023/02/26 00:59:26;;;;;;;6.50;1.63;;;0.30;99.90;;;;;;5046568;28;20960;-66
2023/02/26 01:01:54;;;;;;;1.70;1.60;;;0.30;99.90;;;;;;5043052;28;20466;-65
2023/02/26 01:04:24;;;;;;;1.43;1.30;;;0.20;99.90;;;;;;5031290;28;23028;-66
2023/02/26 01:06:55;;;;;;;4.03;1.73;;;0.30;99.90;;;;;;5049407;28;20493;-65
2023/02/26 01:09:25;;;;;;;2.37;2.17;;;0.30;99.90;;;;;;5053006;28;20481;-67
2023/02/26 01:11:55;;;;;;;2.47;1.50;;;0.30;99.90;;;;;;5052948;28;20462;-66
2023/02/26 01:14:25;;;;;;;1.93;1.40;;;0.40;99.90;;;;;;5047246;28;20906;-66
2023/02/26 01:17:00;;;;;;;2.57;1.73;;;0.40;99.90;;;;;;5044960;28;20490;-66
2023/02/26 01:19:33;;;;;;;2.50;1.50;;;0.40;99.90;;;;;;5051536;28;20501;-67
2023/02/26 01:22:10;;;;;;;3.33;1.50;;;0.40;99.90;;;;;;5050961;28;20470;-68
2023/02/26 01:24:39;;;;;;;1.90;1.40;;;0.50;99.90;;;;;;5054172;28;20457;-66
2023/02/26 01:27:07;;;;;;;3.10;1.50;;;0.50;99.90;;;;;;5051961;28;20486;-68
2023/02/26 01:29:36;;;;;;;1.47;1.00;;;0.50;99.90;;;;;;5047433;28;20513;-65
2023/02/26 01:32:08;;;;;;;5.47;1.40;;;0.50;99.90;;;;;;5048543;28;20520;-67
2023/02/26 01:34:42;;;;;;;1.63;1.53;;;0.50;99.90;;;;;;5050324;28;21846;-68
2023/02/26 01:37:22;;;;;;;1.87;1.20;;;0.50;99.90;;;;;;5050951;28;20489;-66
2023/02/26 01:40:04;;;;;;;1.23;1.13;;;0.60;99.90;;;;;;5053272;28;20874;-66
2023/02/26 01:42:36;;;;;;;1.93;1.50;;;0.60;99.90;;;;;;5053123;28;20531;-67
2023/02/26 01:45:12;;;;;;;1.80;1.50;;;0.60;99.90;;;;;;5049212;28;20478;-66
2023/02/26 01:47:49;;;;;;;2.70;1.70;;;0.60;99.90;;;;;;5048645;28;20493;-66
2023/02/26 01:50:20;;;;;;;2.20;1.43;;;0.60;99.90;;;;;;5048833;28;20543;-67
2023/02/26 01:53:17;;;;;;;2.07;1.33;;;0.60;99.90;;;;;;5052264;28;20470;-68
2023/02/26 01:55:50;;;;;;;3.37;1.47;;;0.60;99.90;;;;;;5052946;28;20540;-66
2023/02/26 01:58:21;;;;;;;3.20;1.40;;;0.60;99.90;;;;;;5058086;28;20600;-66
2023/02/26 02:00:50;;;;;;;3.20;1.97;;;0.50;99.90;;;;;;5055189;28;20498;-67
2023/02/26 02:03:20;;;;;;;2.50;1.50;;;0.60;99.90;;;;;;5050954;28;20477;-67
2023/02/26 02:05:51;;;;;;;2.80;1.40;;;0.50;99.90;;;;;;5047988;28;20501;-66
2023/02/26 02:08:20;;;;;;;2.30;1.40;;;0.50;99.90;;;;;;5054646;28;20862;-66
2023/02/26 02:10:50;;;;;;;3.07;1.80;;;0.50;99.90;;;;;;5054147;28;20489;-65
2023/02/26 02:13:28;;;;;;;2.83;1.40;;;0.40;99.90;;;;;;5054613;28;20469;-65
2023/02/26 02:16:10;;;;;;;2.93;1.70;;;0.40;99.90;;;;;;5053790;28;20607;-65
2023/02/26 02:18:47;;;;;;;2.40;1.40;;;0.30;99.90;;;;;;5055067;28;20497;-65
2023/02/26 02:21:30;;;;;;;2.73;1.40;;;0.30;99.90;;;;;;5053970;28;21352;-66
2023/02/26 02:24:07;;;;;;;4.37;2.07;;;0.30;99.90;;;;;;5057189;28;20890;-66
2023/02/26 02:26:58;;;;;;;1.70;1.27;;;0.30;99.90;;;;;;5051363;28;21127;-66
2023/02/26 02:30:01;;;;;;;2.60;1.50;;;0.20;99.90;;;;;;5053348;28;21056;-66
2023/02/26 02:32:36;;;;;;;2.97;1.50;;;0.20;99.90;;;;;;5052912;28;20465;-66
2023/02/26 02:35:11;;;;;;;4.07;1.63;;;0.20;99.90;;;;;;5046539;28;20954;-66
2023/02/26 02:37:43;;;;;;;3.63;1.80;;;0.20;99.90;;;;;;5053133;28;21017;-66
2023/02/26 02:40:14;;;;;;;2.20;1.60;;;0.10;99.90;;;;;;5054561;28;20906;-67
2023/02/26 02:42:47;;;;;;;1.60;1.50;;;0.10;99.90;;;;;;5055881;28;20469;-66
2023/02/26 02:45:19;;;;;;;1.77;1.60;;;0.10;99.90;;;;;;5052188;28;20961;-68
2023/02/26 02:47:52;;;;;;;2.50;1.60;;;0.00;99.90;;;;;;5048046;28;20486;-67
2023/02/26 02:50:26;;;;;;;3.83;2.00;;;0.00;99.90;;;;;;5046462;28;20493;-66
2023/02/26 02:52:58;;;;;;;4.83;1.80;;;0.00;99.90;;;;;;5054756;28;20472;-66
2023/02/26 02:55:30;;;;;;;2.50;1.50;;;0.00;99.90;;;;;;5050747;28;20497;-66
2023/02/26 02:58:01;;;;;;;2.73;1.60;;;0.00;99.90;;;;;;5031211;28;20497;-65
2023/02/26 03:00:33;;;;;;;2.60;1.50;;;0.00;99.90;;;;;;5041956;28;24475;-66
2023/02/26 03:03:09;;;;;;;1.87;1.70;;;-0.10;99.90;;;;;;5045067;28;20467;-66
2023/02/26 03:05:37;;;;;;;1.43;1.20;;;-0.10;99.90;;;;;;5051904;28;20465;-66
2023/02/26 03:08:10;;;;;;;3.00;1.70;;;-0.10;99.90;;;;;;5046474;28;20493;-66
2023/02/26 03:10:39;;;;;;;4.80;2.10;;;-0.10;99.90;;;;;;5049666;28;20482;-66
2023/02/26 03:13:15;;;;;;;3.20;1.40;;;-0.20;99.90;;;;;;5057161;28;20477;-67
2023/02/26 03:15:53;;;;;;;3.17;1.60;;;-0.20;99.90;;;;;;5050446;28;21143;-67
2023/02/26 03:18:29;;;;;;;4.63;1.70;;;-0.20;99.90;;;;;;5056771;28;20510;-65
2023/02/26 03:21:07;;;;;;;4.47;1.93;;;-0.20;99.90;;;;;;5055391;28;20515;-68
2023/02/26 03:23:42;;;;;;;2.10;1.90;;;-0.20;99.90;;;;;;5066771;28;20470;-66
2023/02/26 03:26:14;;;;;;;2.40;1.70;;;-0.30;99.90;;;;;;5060101;28;20853;-67
2023/02/26 03:28:50;;;;;;;2.07;1.57;;;-0.30;99.90;;;;;;5066891;28;20551;-68
2023/02/26 03:31:26;;;;;;;2.10;1.77;;;-0.20;99.90;;;;;;5062067;28;20489;-67
2023/02/26 03:34:00;;;;;;;3.03;1.60;;;-0.30;99.90;;;;;;5057416;28;21055;-66
2023/02/26 03:36:33;;;;;;;5.07;1.87;;;-0.30;99.90;;;;;;5052261;28;20497;-67
2023/02/26 03:39:05;;;;;;;2.97;1.53;;;-0.30;99.90;;;;;;5051913;28;20477;-67
2023/02/26 03:41:38;;;;;;;3.40;1.57;;;-0.30;99.90;;;;;;5051787;28;20501;-68
2023/02/26 03:44:08;;;;;;;2.50;1.40;;;-0.40;99.90;;;;;;5051612;28;20480;-67
2023/02/26 03:46:46;;;;;;;3.77;1.60;;;-0.30;99.90;;;;;;5052182;28;20981;-67
2023/02/26 03:49:21;;;;;;;1.40;1.30;;;-0.40;99.90;;;;;;5049288;28;20473;-68
2023/02/26 03:51:52;;;;;;;2.40;1.43;;;-0.40;99.90;;;;;;5053484;28;20478;-67
2023/02/26 03:54:24;;;;;;;3.00;1.50;;;-0.40;99.90;;;;;;5053952;28;20612;-66
2023/02/26 03:56:52;;;;;;;1.83;1.30;;;-0.40;99.90;;;;;;5051545;28;20486;-66
2023/02/26 03:59:20;;;;;;;3.70;1.60;;;-0.40;99.90;;;;;;5054571;28;20887;-67
2023/02/26 04:01:53;;;;;;;3.90;1.80;;;-0.40;99.90;;;;;;5059592;28;20487;-68
2023/02/26 04:04:28;;;;;;;1.63;1.53;;;-0.40;99.90;;;;;;5065850;28;20474;-66
2023/02/26 04:06:56;;;;;;;1.67;1.40;;;-0.50;99.90;;;;;;5067592;28;21231;-67
2023/02/26 04:09:24;;;;;;;1.83;1.20;;;-0.40;99.90;;;;;;5055664;28;20484;-67
2023/02/26 04:11:54;;;;;;;1.80;1.50;;;-0.50;99.90;;;;;;5053181;28;20935;-66
2023/02/26 04:14:22;;;;;;;1.83;1.43;;;-0.50;99.90;;;;;;5051905;28;20473;-66
2023/02/26 04:16:50;;;;;;;1.30;1.20;;;-0.60;99.90;;;;;;5053000;28;20495;-66
2023/02/26 04:19:18;;;;;;;2.33;1.40;;;-0.60;99.90;;;;;;5046982;28;20469;-66
2023/02/26 04:21:47;;;;;;;2.67;1.50;;;-0.60;99.90;;;;;;5050456;28;20470;-67
2023/02/26 04:24:15;;;;;;;1.50;1.30;;;-0.60;99.90;;;;;;5046770;28;21308;-68
2023/02/26 04:26:43;;;;;;;1.90;1.43;;;-0.60;99.90;;;;;;5049110;28;20474;-68
2023/02/26 04:29:11;;;;;;;1.93;1.43;;;-0.70;99.90;;;;;;5050619;28;20826;-67
2023/02/26 04:31:39;;;;;;;2.80;1.50;;;-0.70;99.90;;;;;;5045809;28;20542;-67
2023/02/26 04:34:07;;;;;;;2.60;1.50;;;-0.70;99.90;;;;;;5053804;28;20469;-68
2023/02/26 04:36:35;;;;;;;1.80;1.40;;;-0.70;99.90;;;;;;5044253;28;20473;-66
2023/02/26 04:39:04;;;;;;;2.90;1.67;;;-0.70;99.90;;;;;;5051701;28;21423;-67
2023/02/26 04:41:32;;;;;;;2.70;1.30;;;-0.70;99.90;;;;;;5050287;28;20497;-68
2023/02/26 04:44:00;;;;;;;2.40;1.43;;;-0.70;99.90;;;;;;5055389;28;21411;-67
2023/02/26 04:46:28;;;;;;;1.83;1.27;;;-0.70;99.90;;;;;;5053615;28;20485;-66
2023/02/26 04:48:56;;;;;;;2.90;1.60;;;-0.70;99.90;;;;;;5056806;28;20488;-67
2023/02/26 04:51:24;;;;;;;1.53;1.43;;;-0.70;99.90;;;;;;5050601;28;20489;-68
2023/02/26 04:53:52;;;;;;;3.70;1.60;;;-0.80;99.90;;;;;;5048931;28;20496;-66
2023/02/26 04:56:22;;;;;;;2.20;1.60;;;-0.80;99.90;;;;;;5052860;28;20635;-67
2023/02/26 04:58:50;;;;;;;2.23;1.60;;;-0.80;99.90;;;;;;5054148;28;20610;-67
2023/02/26 05:01:18;;;;;;;2.33;1.50;;;-0.80;99.90;;;;;;5050234;28;20493;-66
2023/02/26 05:03:46;;;;;;;3.73;1.10;;;-0.80;99.90;;;;;;5047034;28;20473;-64
2023/02/26 05:06:14;;;;;;;1.50;1.40;;;-0.80;99.90;;;;;;5050696;28;20473;-64
2023/02/26 05:08:42;;;;;;;1.73;1.53;;;-0.80;99.90;;;;;;5054104;28;20480;-64
2023/02/26 05:11:10;;;;;;;1.57;1.47;;;-0.80;99.90;;;;;;5058897;28;20492;-64
2023/02/26 05:13:39;;;;;;;1.40;1.30;;;-0.80;99.90;;;;;;5056215;28;20469;-64
2023/02/26 05:16:08;;;;;;;2.30;1.40;;;-0.80;99.90;;;;;;5057233;28;20501;-64
2023/02/26 05:18:36;;;;;;;2.07;1.40;;;-0.90;99.90;;;;;;5054463;28;20518;-63
2023/02/26 05:21:04;;;;;;;1.30;1.20;;;-0.90;99.90;;;;;;5059287;28;20493;-64
2023/02/26 05:23:32;;;;;;;1.83;1.40;;;-0.90;99.90;;;;;;5053297;28;20466;-63
2023/02/26 05:26:01;;;;;;;2.13;1.40;;;-0.90;99.90;;;;;;5053693;28;20458;-64
2023/02/26 05:28:29;;;;;;;2.80;1.30;;;-0.90;99.90;;;;;;5048245;28;20497;-64
2023/02/26 05:30:59;;;;;;;2.90;1.80;;;-1.00;99.90;;;;;;5049429;28;20507;-62
2023/02/26 05:33:27;;;;;;;2.17;1.20;;;-1.00;99.90;;;;;;5049275;28;20473;-64
2023/02/26 05:35:56;;;;;;;3.00;1.30;;;-1.00;99.90;;;;;;5049958;28;20505;-64
2023/02/26 05:38:24;;;;;;;2.70;1.40;;;-1.00;99.90;;;;;;5055491;28;20493;-64
2023/02/26 05:40:56;;;;;;;4.33;1.63;;;-1.00;99.90;;;;;;5044382;28;20493;-63
2023/02/26 05:43:24;;;;;;;2.07;1.70;;;-1.00;99.90;;;;;;5042699;28;20481;-65
2023/02/26 05:45:52;;;;;;;3.47;1.17;;;-1.10;99.90;;;;;;5052133;28;20980;-64
2023/02/26 05:48:22;;;;;;;2.10;1.40;;;-1.10;99.90;;;;;;5046441;28;20490;-64
2023/02/26 05:50:51;;;;;;;3.60;1.37;;;-1.10;99.90;;;;;;5050898;28;20493;-64
2023/02/26 05:53:19;;;;;;;2.10;1.60;;;-1.10;99.90;;;;;;5053982;28;20470;-63
2023/02/26 05:55:47;;;;;;;2.10;1.10;;;-1.10;99.90;;;;;;5053320;28;21140;-64
2023/02/26 05:58:15;;;;;;;2.13;1.20;;;-1.10;99.90;;;;;;5058116;28;20892;-64
2023/02/26 06:00:43;;;;;;;3.17;1.60;;;-1.10;99.90;;;;;;5046765;28;20496;-64
2023/02/26 06:03:11;;;;;;;3.13;1.47;;;-1.10;99.90;;;;;;5042042;28;22266;-64
2023/02/26 06:05:40;;;;;;;1.73;1.27;;;-1.10;99.90;;;;;;5044355;28;21184;-64
2023/02/26 06:08:10;;;;;;;3.00;1.43;;;-1.10;99.90;;;;;;5045737;28;20482;-62
2023/02/26 06:10:38;;;;;;;1.90;1.20;;;-1.20;99.90;;;;;;5051913;28;21179;-63
2023/02/26 06:13:06;;;;;;;4.10;1.23;;;-1.20;99.90;;;;;;5059220;28;21851;-64
2023/02/26 06:15:34;;;;;;;1.87;1.40;;;-1.20;99.90;;;;;;5060039;28;21151;-63
2023/02/26 06:18:02;;;;;;;2.50;1.63;;;-1.20;99.90;;;;;;5052807;28;20490;-62
2023/02/26 06:20:30;;;;;;;1.63;1.20;;;-1.20;99.90;;;;;;5050376;28;20490;-64
2023/02/26 06:23:00;;;;;;;2.17;1.13;;;-1.20;99.90;;;;;;5044475;28;20483;-63
2023/02/26 06:25:27;;;;;;;1.43;1.10;;;-1.20;99.90;;;;;;5041323;28;20903;-64
2023/02/26 06:27:55;;;;;;;3.23;1.20;;;-1.30;99.90;;;;;;5044902;28;20999;-64
2023/02/26 06:30:23;;;;;;;2.67;1.23;;;-1.30;99.90;;;;;;5046518;28;21884;-64
2023/02/26 06:32:51;;;;;;;1.23;1.13;;;-1.30;99.90;;;;;;5045368;28;20976;-63
2023/02/26 06:35:19;;;;;;;1.30;1.20;;;-1.30;99.90;;;;;;5042467;28;20496;-64
2023/02/26 06:37:47;;;;;;;3.27;1.77;;;-1.30;99.90;;;;;;5049178;28;21114;-64
2023/02/26 06:40:17;;;;;;;2.07;1.40;;;-1.30;99.90;;;;;;5052463;28;20493;-63
2023/02/26 06:42:44;;;;;;;1.30;1.20;;;-1.20;99.90;;;;;;5052170;28;20875;-64
2023/02/26 06:45:12;;;;;;;1.30;1.20;;;-1.20;99.90;;;;;;5056937;28;20467;-64
2023/02/26 06:47:40;;;;;;;2.50;1.30;;;-1.20;99.90;;;;;;5046615;28;20497;-64
2023/02/26 06:50:10;;;;;;;1.87;1.27;;;-1.20;99.90;;;;;;5048506;28;20489;-62
2023/02/26 06:52:38;;;;;;;4.10;1.60;;;-1.20;99.90;;;;;;5040356;28;20478;-62
2023/02/26 06:55:06;;;;;;;2.03;1.60;;;-1.10;99.90;;;;;;5047176;28;21102;-64
2023/02/26 06:57:36;;;;;;;1.57;1.20;;;-1.00;99.90;;;;;;5048824;28;20501;-64
2023/02/26 07:00:05;;;;;;;1.47;1.37;;;-1.00;99.90;;;;;;5028554;28;21020;-64
2023/02/26 07:02:33;;;;;;;2.67;1.60;;;-0.90;99.90;;;;;;5030050;28;20473;-63
2023/02/26 07:05:01;;;;;;;2.60;1.33;;;-0.90;99.90;;;;;;5057638;28;20617;-65
2023/02/26 07:07:29;;;;;;;3.67;1.77;;;-0.90;99.90;;;;;;5044527;28;20488;-64
2023/02/26 07:09:57;;;;;;;1.67;1.57;;;-0.80;99.90;;;;;;5052983;28;20496;-63
2023/02/26 07:12:25;;;;;;;5.40;1.67;;;-0.70;99.90;;;;;;5047357;28;20473;-64
2023/02/26 07:14:54;;;;;;;1.73;1.30;;;-0.70;99.90;;;;;;5046603;28;20474;-66
2023/02/26 07:17:22;;;;;;;3.17;1.40;;;-0.60;99.90;;;;;;5039802;28;20588;-65
2023/02/26 07:19:51;;;;;;;3.90;1.40;;;-0.60;99.90;;;;;;5047991;28;20497;-65
2023/02/26 07:22:20;;;;;;;3.00;1.47;;;-0.50;99.90;;;;;;5048311;28;21000;-64
2023/02/26 07:24:50;;;;;;;1.50;1.40;;;-0.50;99.90;;;;;;5054134;28;20500;-63
2023/02/26 07:27:17;;;;;;;4.13;1.67;;;-0.50;99.90;;;;;;5035507;28;20488;-63
2023/02/26 07:29:46;;;;;;;1.37;1.20;;;-0.50;99.90;;;;;;5037686;28;20489;-65
2023/02/26 07:32:15;;;;;;;2.00;1.20;;;-0.50;99.90;;;;;;5050669;28;21000;-65
2023/02/26 07:34:43;;;;;;;2.07;1.30;;;-0.60;99.90;;;;;;5052804;28;20470;-67
2023/02/26 07:37:11;;;;;;;4.47;1.73;;;-0.60;99.90;;;;;;5053840;28;20488;-68
2023/02/26 07:39:39;;;;;;;3.73;2.03;;;-0.60;99.90;;;;;;5054846;28;20485;-66
2023/02/26 07:42:08;;;;;;;2.53;1.60;;;-0.60;99.90;;;;;;5049239;28;20484;-66
2023/02/26 07:44:43;;;;;;;1.83;1.50;;;-0.60;99.90;;;;;;5043972;28;20556;-63
2023/02/26 07:47:12;;;;;;;5.33;1.60;;;-0.60;99.90;;;;;;5049342;28;20485;-65
2023/02/26 07:49:41;;;;;;;2.07;1.70;;;-0.60;99.90;;;;;;5035589;28;20515;-64
2023/02/26 07:52:10;;;;;;;3.20;1.80;;;-0.60;99.90;;;;;;5044720;28;20483;-63
2023/02/26 07:54:38;;;;;;;3.63;2.27;;;-0.50;99.90;;;;;;5050363;28;20489;-65
2023/02/26 07:57:06;;;;;;;1.93;1.50;;;-0.50;99.90;;;;;;5049653;28;20527;-64
2023/02/26 07:59:34;;;;;;;3.97;2.10;;;-0.50;99.90;;;;;;5054771;28;20470;-64
2023/02/26 08:02:02;;;;;;;1.90;1.80;;;-0.40;99.90;;;;;;5040192;28;20488;-63
2023/02/26 08:04:31;;;;;;;1.80;1.70;;;-0.40;99.90;;;;;;5039162;28;20466;-65
2023/02/26 08:07:01;;;;;;;4.00;2.40;;;-0.30;99.90;;;;;;5048921;28;21094;-64
2023/02/26 08:09:30;;;;;;;2.40;1.87;;;-0.20;99.90;;;;;;5058354;28;20473;-64
2023/02/26 08:11:58;;;;;;;4.50;2.17;;;-0.20;99.90;;;;;;5058261;28;20957;-63
2023/02/26 08:14:26;;;;;;;2.40;2.20;;;-0.10;99.90;;;;;;5049969;28;20977;-63
2023/02/26 08:16:54;;;;;;;3.07;2.03;;;0.00;99.90;;;;;;5055379;28;20477;-64
2023/02/26 08:19:22;;;;;;;4.27;2.10;;;0.00;99.90;;;;;;5045092;28;20865;-63
2023/02/26 08:21:49;;;;;;;3.07;2.07;;;0.00;99.90;;;;;;5039249;28;20534;-65
2023/02/26 08:24:19;;;;;;;2.77;1.90;;;0.10;99.90;;;;;;5050909;28;20469;-65
2023/02/26 08:26:47;;;;;;;2.67;2.00;;;0.10;99.90;;;;;;5036330;28;20497;-62
2023/02/26 08:29:15;;;;;;;2.77;2.07;;;0.20;99.90;;;;;;5049407;28;20477;-63
2023/02/26 08:31:43;;;;;;;2.73;1.80;;;0.30;99.90;;;;;;5051255;28;20846;-66
2023/02/26 08:34:11;;;;;;;3.10;1.63;;;0.30;99.90;;;;;;5052959;28;20465;-65
2023/02/26 08:36:40;;;;;;;2.00;1.80;;;0.40;99.90;;;;;;5043577;28;22203;-63
2023/02/26 08:39:08;;;;;;;4.10;2.30;;;0.50;99.90;;;;;;5056880;28;20494;-64
2023/02/26 08:41:37;;;;;;;3.37;1.90;;;0.50;99.90;;;;;;5041349;28;20493;-62
2023/02/26 08:44:07;;;;;;;2.60;1.67;;;0.60;99.90;;;;;;5053542;28;20481;-63
2023/02/26 08:46:35;;;;;;;2.30;1.63;;;0.70;99.90;;;;;;5050256;28;20536;-63
2023/02/26 08:49:03;;;;;;;3.00;2.17;;;0.80;99.90;;;;;;5041527;28;20498;-63
2023/02/26 08:51:31;;;;;;;3.70;2.17;;;0.90;99.90;;;;;;5040484;28;20497;-63
2023/02/26 08:53:59;;;;;;;2.63;1.87;;;0.90;99.90;;;;;;5047582;28;20992;-64
2023/02/26 08:56:26;;;;;;;2.33;1.83;;;1.00;99.90;;;;;;5052240;28;20976;-64
2023/02/26 08:58:56;;;;;;;2.83;1.80;;;1.00;99.90;;;;;;5046110;28;20915;-63
2023/02/26 09:01:24;;;;;;;4.70;1.80;;;1.10;99.90;;;;;;5047427;28;20563;-63
2023/02/26 09:03:52;;;;;;;1.80;1.30;;;1.20;99.90;;;;;;5053050;28;20531;-65
2023/02/26 09:06:20;;;;;;;4.30;1.77;;;1.30;99.90;;;;;;5020635;28;20482;-63
2023/02/26 09:08:48;;;;;;;2.10;1.90;;;1.30;99.90;;;;;;5034343;28;20493;-64
2023/02/26 09:11:16;;;;;;;2.47;1.67;;;1.40;99.90;;;;;;5017249;28;20557;-62
2023/02/26 09:13:45;;;;;;;2.10;1.90;;;1.50;99.90;;;;;;5035877;28;20471;-62
2023/02/26 09:16:14;;;;;;;2.17;1.97;;;1.50;99.90;;;;;;5028658;28;20485;-61
2023/02/26 09:18:43;;;;;;;2.30;2.10;;;1.60;99.90;;;;;;5037741;28;20487;-61
2023/02/26 09:21:11;;;;;;;1.53;1.43;;;1.70;99.90;;;;;;5031753;28;20505;-64
2023/02/26 09:23:39;;;;;;;1.90;1.67;;;1.70;99.90;;;;;;5022545;28;20474;-61
2023/02/26 09:26:08;;;;;;;2.13;1.57;;;1.80;99.90;;;;;;5031895;28;20467;-64
2023/02/26 09:28:36;;;;;;;3.20;1.73;;;1.80;99.90;;;;;;5035972;28;20485;-61
2023/02/26 09:31:06;;;;;;;1.67;1.40;;;1.80;99.90;;;;;;5035615;28;20497;-64
2023/02/26 09:33:35;;;;;;;2.37;1.07;;;1.90;99.90;;;;;;5042810;28;20489;-62
2023/02/26 09:36:04;;;;;;;1.60;1.07;;;2.00;99.90;;;;;;5041736;28;20469;-63
2023/02/26 09:38:32;;;;;;;1.30;1.03;;;2.20;99.90;;;;;;5039118;28;20486;-62
2023/02/26 09:41:03;;;;;;;0.90;0.80;;;2.20;99.90;;;;;;5040154;28;20488;-60
2023/02/26 09:43:47;;;;;;;1.70;0.80;;;2.40;99.90;;;;;;5039680;28;20547;-63
2023/02/26 09:46:36;;;;;;;3.00;1.10;;;2.50;99.90;;;;;;5041771;28;20457;-62
2023/02/26 09:49:16;;;;;;;1.17;0.60;;;2.60;99.90;;;;;;5022757;28;20470;-61
2023/02/26 09:51:45;;;;;;;2.50;0.90;;;2.70;99.90;;;;;;5025520;28;20469;-62
2023/02/26 09:54:19;;;;;;;3.30;1.40;;;2.90;99.90;;;;;;5031894;28;20907;-61
2023/02/26 09:56:47;;;;;;;2.00;1.10;;;3.00;99.90;;;;;;5035452;28;20888;-61
2023/02/26 09:59:15;;;;;;;1.50;1.17;;;3.10;99.90;;;;;;5043477;28;20489;-66
2023/02/26 10:01:51;;;;;;;1.60;1.00;;;3.20;99.90;;;;;;5050891;28;20465;-63
2023/02/26 10:04:31;;;;;;;2.87;1.40;;;3.30;99.90;;;;;;5038201;28;20473;-63
2023/02/26 10:07:10;;;;;;;1.03;0.97;;;3.30;99.90;;;;;;5045317;28;20485;-62
2023/02/26 10:10:00;;;;;;;1.07;0.90;;;3.30;99.90;;;;;;5044243;28;20846;-62
2023/02/26 10:12:29;;;;;;;3.13;1.20;;;3.30;99.90;;;;;;5049392;28;20519;-63
2023/02/26 10:15:01;;;;;;;2.73;0.87;;;3.30;99.90;;;;;;5049638;28;20477;-64
2023/02/26 10:17:35;;;;;;;1.17;0.93;;;3.30;99.90;;;;;;5047620;28;20485;-65
2023/02/26 10:20:11;;;;;;;1.30;1.20;;;3.30;99.90;;;;;;5037673;28;20950;-64
2023/02/26 10:22:45;;;;;;;3.20;1.13;;;3.40;99.90;;;;;;5051243;28;20217;-66
2023/02/26 10:25:19;;;;;;;1.07;0.90;;;3.40;99.90;;;;;;5047824;28;20464;-64
2023/02/26 10:27:57;;;;;;;1.90;1.13;;;3.50;99.90;;;;;;5041586;28;21040;-64
2023/02/26 10:30:32;;;;;;;2.50;0.90;;;3.70;99.90;;;;;;5043889;28;20493;-66
2023/02/26 10:33:07;;;;;;;1.13;1.10;;;3.80;99.90;;;;;;5037399;28;20469;-64
2023/02/26 10:35:43;;;;;;;0.80;0.70;;;4.00;99.90;;;;;;5037392;28;20509;-64
2023/02/26 10:38:13;;;;;;;2.00;1.17;;;4.10;99.90;;;;;;5044454;28;20500;-65
2023/02/26 10:40:47;;;;;;;1.53;1.00;;;4.30;99.90;;;;;;5044094;28;20481;-65
2023/02/26 10:43:19;;;;;;;1.10;1.00;;;4.30;99.90;;;;;;5038257;28;20938;-65
2023/02/26 10:45:58;;;;;;;1.83;1.73;;;4.50;99.90;;;;;;5042216;28;20469;-65
2023/02/26 10:48:46;;;;;;;1.10;0.90;;;4.60;99.90;;;;;;5031190;28;21406;-65
2023/02/26 10:51:18;;;;;;;1.70;0.97;;;4.60;99.90;;;;;;5040565;28;20489;-65
2023/02/26 10:53:51;;;;;;;1.07;0.97;;;4.70;99.90;;;;;;5033663;28;20526;-65
2023/02/26 10:56:23;;;;;;;1.57;1.10;;;4.80;99.90;;;;;;5031894;28;20469;-65
2023/02/26 10:58:53;;;;;;;1.20;0.90;;;4.90;99.90;;;;;;5035367;28;20489;-65
2023/02/26 11:01:24;;;;;;;2.17;1.20;;;5.00;99.90;;;;;;5028080;28;20521;-64
2023/02/26 11:03:57;;;;;;;2.00;1.10;;;5.10;99.90;;;;;;5026268;28;20552;-63
2023/02/26 11:06:30;;;;;;;2.43;1.70;;;5.20;99.90;;;;;;5040347;28;20467;-63
2023/02/26 11:09:00;;;;;;;2.80;1.23;;;5.20;99.90;;;;;;5031897;28;20473;-64
2023/02/26 11:11:42;;;;;;;1.33;1.10;;;5.30;99.90;;;;;;5031087;28;20485;-65
2023/02/26 11:14:11;;;;;;;2.47;1.20;;;5.40;99.90;;;;;;5042895;28;20565;-65
2023/02/26 11:16:48;;;;;;;1.67;1.20;;;5.50;99.90;;;;;;5039388;28;20477;-65
2023/02/26 11:19:17;;;;;;;1.33;1.23;;;5.70;99.90;;;;;;5033452;28;20521;-65
2023/02/26 11:21:47;;;;;;;2.07;1.40;;;5.90;99.90;;;;;;5055334;28;20462;-65
2023/02/26 11:24:26;;;;;;;1.50;1.20;;;6.00;99.90;;;;;;5047205;28;20465;-65
2023/02/26 11:26:57;;;;;;;1.83;1.20;;;6.10;99.90;;;;;;5050959;28;20484;-66
2023/02/26 11:29:26;;;;;;;1.27;1.03;;;6.20;99.90;;;;;;5047386;28;20466;-63
2023/02/26 11:32:00;;;;;;;1.77;0.80;;;6.30;99.90;;;;;;5037065;28;20469;-64
2023/02/26 11:34:30;;;;;;;2.17;1.23;;;6.20;99.90;;;;;;4973340;28;20479;-68
2023/02/26 11:37:01;;;;;;;1.53;1.00;;;6.10;99.90;;;;;;4970003;28;21398;-67
2023/02/26 11:39:36;;;;;;;1.20;1.10;;;5.90;99.90;;;;;;4969319;28;20500;-67
2023/02/26 11:42:05;;;;;;;1.13;1.07;;;5.80;99.90;;;;;;4960400;28;20475;-67
2023/02/26 11:44:38;;;;;;;3.40;1.50;;;5.70;99.90;;;;;;4972169;28;20479;-66
2023/02/26 11:47:11;;;;;;;1.77;1.40;;;5.80;99.90;;;;;;4979770;28;20996;-64
2023/02/26 11:49:44;;;;;;;1.80;1.43;;;5.80;99.90;;;;;;4988747;28;20512;-65
2023/02/26 11:52:27;;;;;;;2.67;1.70;;;5.80;99.90;;;;;;5004297;28;20531;-65
2023/02/26 11:55:01;;;;;;;3.93;1.50;;;5.70;99.90;;;;;;5049595;28;20546;-64
2023/02/26 11:57:31;;;;;;;3.80;1.77;;;5.60;99.90;;;;;;5051154;28;20494;-65
2023/02/26 12:00:01;;;;;;;3.43;1.43;;;5.70;99.90;;;;;;5054127;28;20514;-67
2023/02/26 12:02:34;;;;;;;1.87;1.40;;;5.70;99.90;;;;;;5034904;28;21051;-67
2023/02/26 12:05:06;;;;;;;2.50;1.53;;;5.70;99.90;;;;;;5029810;28;20563;-67
2023/02/26 12:31:28;;;;;;;2.10;1.10;;;14.30;61.40;;;;;;5070643;27;20537;-67
2023/02/26 12:34:14;;;;;;;2.93;1.40;;;17.60;47.60;;;;;;5055704;27;20467;-69
2023/02/26 12:36:57;;;;;;;1.17;0.93;;;20.00;40.30;;;;;;5087048;27;20873;-68
2023/02/26 12:39:44;;;;;;;1.50;1.40;;;19.70;36.40;;;;;;5095170;27;20491;-67
2023/02/26 12:42:21;;;;;;;1.30;1.20;;;20.10;38.80;;;;;;5080740;27;20463;-68
2023/02/26 12:45:13;;;;;;;1.50;1.10;;;22.40;35.80;;;;;;5088211;27;20603;-70
2023/02/26 12:55:52;;;;;;;1.30;1.20;;;19.30;31.40;;;;;;5086026;28;20442;-68
2023/02/26 12:58:55;;;;;;;2.13;1.50;;;15.90;33.90;;;;;;5057456;27;20495;-68
2023/02/26 13:01:36;;;;;;;2.40;1.30;;;13.70;37.50;;;;;;5078785;28;20495;-68
2023/02/26 13:04:38;;;;;;;1.73;1.50;;;12.40;41.60;;;;;;5083209;27;20464;-68
2023/02/26 13:07:41;;;;;;;2.43;1.53;;;11.30;43.60;;;;;;5064549;27;20595;-67
2023/02/26 13:10:19;;;;;;;1.97;1.43;;;12.70;48.40;;;;;;5047928;27;20946;-67
2023/02/26 13:12:56;;;;;;;1.50;1.40;;;14.60;45.00;;;;;;5081687;27;20463;-69
2023/02/26 13:15:56;;;;;;;2.20;1.60;;;15.40;41.90;;;;;;5079805;28;20471;-71
2023/02/26 13:18:32;;;;;;;2.30;1.30;;;14.90;41.20;;;;;;5074412;28;20544;-72
2023/02/26 13:21:06;;;;;;;1.80;1.30;;;13.80;42.40;;;;;;5090793;27;20495;-72
2023/02/26 13:23:46;;;;;;;1.13;1.03;;;12.70;43.00;;;;;;5085437;28;20572;-70
2023/02/26 13:26:16;;;;;;;1.43;1.00;;;11.70;45.00;;;;;;5086051;27;20774;-73
2023/02/26 13:28:49;;;;;;;1.20;1.10;;;10.80;47.90;;;;;;5086222;27;20478;-73
2023/02/26 13:31:22;;;;;;;2.60;1.10;;;10.00;55.00;;;;;;5084268;27;20579;-70
2023/02/26 13:33:57;;;;;;;1.57;1.00;;;9.30;74.80;;;;;;5082182;28;20742;-70
2023/02/26 13:36:27;;;;;;;1.20;1.00;;;8.90;90.40;;;;;;5087926;27;20455;-69
2023/02/26 13:39:20;;;;;;;2.00;1.30;;;8.40;99.90;;;;;;5090149;28;20463;-70
2023/02/26 13:41:58;;;;;;;2.03;1.20;;;8.00;99.90;;;;;;5084706;27;20642;-68
2023/02/26 13:44:35;;;;;;;1.00;0.90;;;7.90;99.90;;;;;;5091920;28;20547;-69
2023/02/26 13:47:44;;;;;;;2.90;2.13;;;8.10;99.90;;;;;;5075844;27;20515;-72
2023/02/26 13:50:31;;;;;;;4.10;1.63;;;8.20;99.90;;;;;;5094308;27;20479;-69